createdAt,value
2022-10-08T00:02:30.245Z,101500.34
2022-10-08T00:07:57.422Z,101509.09
2022-10-08T00:13:22.653Z,101503.63
2022-10-08T00:18:49.416Z,101506.56
2022-10-08T00:24:15.522Z,101526.81
2022-10-08T00:29:38.670Z,101525.41
2022-10-08T00:35:01.797Z,101524.91
2022-10-08T00:40:26.340Z,101524.56
2022-10-08T00:45:49.792Z,101524.50
2022-10-08T00:51:12.948Z,101528.84
2022-10-08T00:56:38.944Z,101537.94
2022-10-08T01:02:02.160Z,101539.94
2022-10-08T01:07:28.666Z,101538.72
2022-10-08T01:13:07.932Z,101526.53
2022-10-08T01:18:39.645Z,101522.97
2022-10-08T01:24:23.347Z,101525.56
2022-10-08T01:29:50.229Z,101525.63
2022-10-08T01:35:17.737Z,101515.19
2022-10-08T01:40:44.641Z,101516.94
2022-10-08T01:46:15.644Z,101525.91
2022-10-08T01:51:42.481Z,101527.63
2022-10-08T01:57:06.770Z,101515.50
2022-10-08T02:02:33.489Z,101520.13
2022-10-08T02:07:56.766Z,101528.00
2022-10-08T02:13:22.505Z,101528.13
2022-10-08T02:18:51.321Z,101533.56
2022-10-08T02:24:18.814Z,101531.81
2022-10-08T02:29:44.397Z,101531.06
2022-10-08T02:35:13.261Z,101538.66
2022-10-08T02:40:37.936Z,101540.38
2022-10-08T02:46:04.340Z,101539.69
2022-10-08T02:51:30.752Z,101548.50
2022-10-08T02:56:56.965Z,101558.09
2022-10-08T03:02:23.477Z,101557.19
2022-10-08T03:07:50.478Z,101567.03
2022-10-08T03:13:18.800Z,101562.53
2022-10-08T03:18:48.088Z,101569.81
2022-10-08T03:24:13.877Z,101579.50
2022-10-08T03:29:39.099Z,101577.69
2022-10-08T03:35:02.194Z,101580.31
2022-10-08T03:40:26.683Z,101577.69
2022-10-08T03:45:51.831Z,101591.63
2022-10-08T03:51:15.517Z,101594.28
2022-10-08T03:56:40.086Z,101610.97
2022-10-08T04:02:03.153Z,101602.31
2022-10-08T04:07:26.300Z,101611.09
2022-10-08T04:12:50.675Z,101609.22
2022-10-08T04:18:13.995Z,101614.38
2022-10-08T04:23:39.354Z,101609.31
2022-10-08T04:29:03.817Z,101613.50
2022-10-08T04:34:26.887Z,101617.94
2022-10-08T04:39:49.934Z,101618.91
2022-10-08T04:45:14.445Z,101625.03
2022-10-08T04:50:37.609Z,101633.78
2022-10-08T04:56:09.296Z,101627.78
2022-10-08T05:01:33.828Z,101636.53
2022-10-08T05:06:56.978Z,101640.13
2022-10-08T05:12:20.107Z,101646.34
2022-10-08T05:17:44.535Z,101657.69
2022-10-08T05:23:08.302Z,101676.06
2022-10-08T05:28:31.485Z,101674.41
2022-10-08T05:33:56.510Z,101679.63
2022-10-08T05:39:20.025Z,101683.31
2022-10-08T05:44:45.389Z,101691.06
2022-10-08T05:50:10.747Z,101694.88
2022-10-08T05:55:34.080Z,101702.78
2022-10-08T06:01:00.517Z,101713.91
2022-10-08T06:06:26.234Z,101703.56
2022-10-08T06:11:49.674Z,101739.91
2022-10-08T06:17:12.795Z,101743.56
2022-10-08T06:22:37.360Z,101739.91
2022-10-08T06:28:00.587Z,101759.13
2022-10-08T06:33:23.840Z,101756.34
2022-10-08T06:38:51.513Z,101771.66
2022-10-08T06:44:15.902Z,101779.03
2022-10-08T06:49:39.822Z,101784.97
2022-10-08T06:55:04.575Z,101797.59
2022-10-08T07:00:27.743Z,101796.69
2022-10-08T07:05:51.051Z,101809.72
2022-10-08T07:11:16.990Z,101824.38
2022-10-08T07:16:40.130Z,101814.78
2022-10-08T07:22:03.240Z,101837.50
2022-10-08T07:27:27.825Z,101845.41
2022-10-08T07:32:53.501Z,101839.28
2022-10-08T07:38:18.529Z,101865.97
2022-10-08T07:43:43.327Z,101883.06
2022-10-08T07:49:06.549Z,101886.00
2022-10-08T07:54:29.825Z,101897.88
2022-10-08T07:59:54.309Z,101894.72
2022-10-08T08:05:17.588Z,101902.66
2022-10-08T08:10:40.662Z,101908.09
2022-10-08T08:16:07.203Z,101918.22
2022-10-08T08:21:31.960Z,101922.44
2022-10-08T08:26:57.726Z,101929.81
2022-10-08T08:32:28.239Z,101945.00
2022-10-08T08:37:51.680Z,101959.06
2022-10-08T08:43:14.755Z,101963.53
2022-10-08T08:48:40.902Z,101963.47
2022-10-08T08:54:04.146Z,101972.13
2022-10-08T08:59:29.466Z,101986.13
2022-10-08T09:05:00.512Z,101987.56
2022-10-08T09:10:32.777Z,101989.47
2022-10-08T09:15:56.373Z,101991.63
2022-10-08T09:21:21.492Z,102026.41
2022-10-08T09:26:44.845Z,102027.66
2022-10-08T09:32:15.638Z,102033.38
2022-10-08T09:37:40.138Z,102026.69
2022-10-08T09:43:12.750Z,102041.72
2022-10-08T09:48:35.777Z,102044.09
2022-10-08T09:54:01.122Z,102046.00
2022-10-08T09:59:30.138Z,102042.00
2022-10-08T10:04:54.368Z,102065.00
2022-10-08T10:10:22.634Z,102064.38
2022-10-08T10:15:50.614Z,102073.53
2022-10-08T10:21:18.512Z,102080.53
2022-10-08T10:26:43.934Z,102087.16
2022-10-08T10:32:14.459Z,102081.16
2022-10-08T10:37:44.338Z,102085.63
2022-10-08T10:43:17.336Z,102092.16
2022-10-08T10:48:40.556Z,102098.19
2022-10-08T10:54:10.919Z,102096.81
2022-10-08T10:59:44.969Z,102099.72
2022-10-08T11:05:13.181Z,102103.22
2022-10-08T11:10:45.841Z,102100.38
2022-10-08T11:16:19.936Z,102116.13
2022-10-08T11:21:51.348Z,102117.78
2022-10-08T11:27:23.584Z,102121.41
2022-10-08T11:32:53.597Z,102120.63
2022-10-08T11:38:20.557Z,102120.47
2022-10-08T11:43:46.830Z,102129.03
2022-10-08T11:49:43.527Z,102128.44
2022-10-08T11:55:21.159Z,102126.31
2022-10-08T12:00:45.803Z,102128.81
2022-10-08T12:06:20.580Z,102128.06
2022-10-08T12:11:53.287Z,102144.25
2022-10-08T12:17:17.259Z,102142.09
2022-10-08T12:23:01.039Z,102125.69
2022-10-08T12:28:50.541Z,102150.16
2022-10-08T12:34:17.658Z,102156.97
2022-10-08T12:39:42.668Z,102161.13
2022-10-08T12:45:12.540Z,102151.59
2022-10-08T12:50:47.030Z,102145.56
2022-10-08T12:56:15.715Z,102157.31
2022-10-08T13:01:41.711Z,102162.06
2022-10-08T13:07:19.880Z,102165.38
2022-10-08T13:12:43.651Z,102165.84
2022-10-08T13:18:15.588Z,102165.78
2022-10-08T13:23:44.180Z,102179.91
2022-10-08T13:29:27.145Z,102184.16
2022-10-08T13:34:53.018Z,102188.25
2022-10-08T13:40:19.522Z,102198.69
2022-10-08T13:45:42.554Z,102198.16
2022-10-08T13:51:07.230Z,102202.72
2022-10-08T13:56:30.464Z,102208.03
2022-10-08T14:01:53.790Z,102211.56
2022-10-08T14:07:21.936Z,102211.03
2022-10-08T14:12:45.004Z,102207.84
2022-10-08T14:18:08.289Z,102205.25
2022-10-08T14:23:33.365Z,102219.47
2022-10-08T14:28:56.808Z,102212.78
2022-10-08T14:34:19.833Z,102218.41
2022-10-08T14:39:45.821Z,102229.31
2022-10-08T14:45:09.522Z,102230.94
2022-10-08T14:50:32.614Z,102231.25
2022-10-08T14:56:11.638Z,102236.59
2022-10-08T15:01:36.707Z,102252.44
2022-10-08T15:06:59.935Z,102251.84
2022-10-08T15:12:24.349Z,102251.13
2022-10-08T15:17:48.191Z,102261.09
2022-10-08T15:23:11.699Z,102251.44
2022-10-08T15:28:38.456Z,102254.84
2022-10-08T15:34:01.841Z,102263.44
2022-10-08T15:39:24.989Z,102266.31
2022-10-08T15:44:49.449Z,102266.78
2022-10-08T15:50:12.512Z,102269.41
2022-10-08T15:55:35.606Z,102253.91
2022-10-08T16:01:06.906Z,102275.19
2022-10-08T16:06:33.413Z,102281.53
2022-10-08T16:11:56.548Z,102287.16
2022-10-08T16:17:21.060Z,102299.09
2022-10-08T16:22:44.186Z,102305.88
2022-10-08T16:28:07.326Z,102310.56
2022-10-08T16:33:31.715Z,102319.69
2022-10-08T16:38:56.458Z,102322.34
2022-10-08T16:44:20.674Z,102326.75
2022-10-08T16:49:45.151Z,102332.00
2022-10-08T16:55:09.289Z,102328.81
2022-10-08T17:00:33.661Z,102340.31
2022-10-08T17:05:58.110Z,102348.28
2022-10-08T17:11:21.636Z,102346.50
2022-10-08T17:16:45.709Z,102352.84
2022-10-08T17:22:10.636Z,102353.69
2022-10-08T17:27:33.820Z,102360.72
2022-10-08T17:32:56.799Z,102359.78
2022-10-08T17:38:21.281Z,102364.97
2022-10-08T17:43:44.607Z,102380.84
2022-10-08T17:49:07.630Z,102384.34
2022-10-08T17:54:32.016Z,102394.16
2022-10-08T17:59:55.036Z,102383.16
2022-10-08T18:05:18.167Z,102402.25
2022-10-08T18:10:42.549Z,102403.16
2022-10-08T18:16:06.559Z,102411.84
2022-10-08T18:21:29.693Z,102415.34
2022-10-08T18:26:54.078Z,102423.25
2022-10-08T18:32:17.172Z,102436.53
2022-10-08T18:37:40.189Z,102441.00
2022-10-08T18:43:04.568Z,102447.16
2022-10-08T18:48:28.798Z,102448.03
2022-10-08T18:53:52.719Z,102457.69
2022-10-08T18:59:18.772Z,102464.78
2022-10-08T19:04:41.897Z,102463.94
2022-10-08T19:10:05.574Z,102460.41
2022-10-08T19:15:30.173Z,102472.63
2022-10-08T19:20:53.319Z,102470.06
2022-10-08T19:26:16.669Z,102478.84
2022-10-08T19:31:41.066Z,102484.09
2022-10-08T19:37:04.175Z,102479.81
2022-10-08T19:42:27.321Z,102480.69
2022-10-08T19:47:51.832Z,102480.75
2022-10-08T19:53:15.485Z,102487.78
2022-10-08T19:58:38.731Z,102486.94
2022-10-08T20:04:05.044Z,102493.03
2022-10-08T20:09:28.178Z,102501.81
2022-10-08T20:14:51.227Z,102505.31
2022-10-08T20:20:32.239Z,102505.28
2022-10-08T20:25:57.005Z,102502.72
2022-10-08T20:31:23.857Z,102516.69
2022-10-08T20:36:49.348Z,102517.56
2022-10-08T20:42:12.409Z,102523.69
2022-10-08T20:47:35.426Z,102522.81
2022-10-08T20:52:59.861Z,102534.16
2022-10-08T20:58:22.960Z,102529.78
2022-10-08T21:03:46.637Z,102521.97
2022-10-08T21:09:11.841Z,102521.06
2022-10-08T21:14:34.988Z,102520.19
2022-10-08T21:19:58.004Z,102523.66
2022-10-08T21:25:22.496Z,102530.59
2022-10-08T21:30:45.541Z,102533.25
2022-10-08T21:36:10.857Z,102523.63
2022-10-08T21:41:36.855Z,102524.53
2022-10-08T21:46:59.862Z,102534.13
2022-10-08T21:52:22.875Z,102535.81
2022-10-08T21:57:47.245Z,102533.22
2022-10-08T22:03:10.355Z,102536.69
2022-10-08T22:08:33.413Z,102532.31
2022-10-08T22:13:57.796Z,102536.66
2022-10-08T22:19:21.033Z,102534.03
2022-10-08T22:24:46.112Z,102532.31
2022-10-08T22:30:11.542Z,102535.78
2022-10-08T22:35:35.020Z,102533.19
2022-10-08T22:41:02.321Z,102525.34
2022-10-08T22:46:28.806Z,102524.47
2022-10-08T22:51:51.808Z,102522.72
2022-10-08T22:57:14.895Z,102534.88
2022-10-08T23:02:39.753Z,102524.44
2022-10-08T23:08:02.955Z,102523.56
2022-10-08T23:13:26.531Z,102524.41
2022-10-08T23:18:56.305Z,102530.47
2022-10-08T23:24:19.550Z,102520.00
2022-10-08T23:29:42.558Z,102526.09
2022-10-08T23:35:08.087Z,102527.84
2022-10-08T23:40:31.130Z,102524.34
2022-10-08T23:45:54.237Z,102524.31
2022-10-08T23:51:19.917Z,102527.78
2022-10-08T23:56:42.949Z,102527.78
